Asiatic Wave — 9V8790 — position and weather

sailwx.info

Track history (hours):
 
Tides and Currents Weather Stations Pressure Air Temp Water Temp Dewpoint Dewpoint Depression Visibility Wind Speed Wind Dir Waves Ship Positions

Asiatic Wave

Last reported at 2016-Jul-28 23:04 UTC. Time now 2016-Jul-30 07:21 UTC.
Position N 34°34' E 134°49'.

Length 150 m; draft 7 m.

Type: Ship (hazmat cat A). MMSI: 564211000.

Date/timePositionNaut miles runAvg speedWind from/ knotsBaromVisibWave heightAir tempDewpointWater temp
2016-Jul-28 23:04N 34°34' E 134°49'916.4
2016-Jul-28 22:33N 34°37' E 134°58'1514.6
2016-Jul-28 21:33N 34°38' E 135°16'3 2.4
2016-Jul-28 20:29N 34°40' E 135°14'0 0.0
2016-Jul-28 19:33N 34°40' E 135°14'0 0.0
2016-Jul-28 18:12N 34°40' E 135°14'0 0.0
2016-Jul-28 17:22N 34°40' E 135°14'0 0.0
2016-Jul-28 16:28N 34°40' E 135°14'0 0.0
2016-Jul-28 15:33N 34°40' E 135°14'0 0.0
2016-Jul-28 14:33N 34°40' E 135°14'0 0.0
2016-Jul-28 13:33N 34°40' E 135°14'0 0.0
2016-Jul-28 12:33N 34°40' E 135°14'1 0.5
2016-Jul-28 11:33N 34°40' E 135°15'9 9.2
2016-Jul-28 10:33N 34°39' E 135°26'0 0.0
2016-Jul-28 09:33N 34°39' E 135°26'0 0.0
2016-Jul-28 08:33N 34°39' E 135°26'0 0.0
2016-Jul-28 07:33N 34°39' E 135°26'0 0.0
2016-Jul-28 06:33N 34°39' E 135°26'0 0.0
2016-Jul-28 05:33N 34°39' E 135°26'0 0.0
2016-Jul-28 04:33N 34°39' E 135°26'0 0.0
2016-Jul-28 03:33N 34°39' E 135°26'0 0.0
2016-Jul-28 02:33N 34°39' E 135°26'0 0.0
2016-Jul-28 01:33N 34°39' E 135°26'0 0.0
2016-Jul-28 00:33N 34°39' E 135°26'0 0.0
2016-Jul-27 23:33N 34°39' E 135°26'0 0.0
2016-Jul-27 22:33N 34°39' E 135°26'5 4.9
2016-Jul-27 21:33N 34°36' E 135°20'9 9.2
2016-Jul-27 20:33N 34°35' E 135°10'9 9.4
2016-Jul-27 19:33N 34°37' E 134°58'1111.1
2016-Jul-27 18:32N 34°32' E 134°46'66615.1
2016-Jul-25 22:25N 31°11' E 122°10'1414.8
2016-Jul-25 21:30N 31°15' E 121°55'1314.2
2016-Jul-25 20:33N 31°20' E 121°41'5 3.1
2016-Jul-25 19:05N 31°22' E 121°36'0 0.0
2016-Jul-25 18:32N 31°22' E 121°36'0 0.0
2016-Jul-25 17:22N 31°22' E 121°36'0 0.0
2016-Jul-25 16:04N 31°22' E 121°36'0 0.0
2016-Jul-25 15:09N 31°22' E 121°36'0 0.0
2016-Jul-25 11:25N 31°22' E 121°36'0 0.0
2016-Jul-25 10:18N 31°22' E 121°36'0 0.0
2016-Jul-25 09:06N 31°22' E 121°36'0 0.0
2016-Jul-25 08:29N 31°22' E 121°36'0 0.0
2016-Jul-25 07:29N 31°22' E 121°36'0 0.1
2016-Jul-25 06:33N 31°22' E 121°36'0 0.1
2016-Jul-25 04:33N 31°22' E 121°36'4 4.0
2016-Jul-25 03:33N 31°21' E 121°40'  
2016-Jul-22 13:33N 34°58' E 139°29'1817.8
2016-Jul-22 12:34N 35°09' E 139°46'1312.8
2016-Jul-22 11:33N 35°22' E 139°42'5 5.0
2016-Jul-22 10:32N 35°26' E 139°41'0 0.0
2016-Jul-22 09:32N 35°26' E 139°41'0 0.0
2016-Jul-22 08:31N 35°26' E 139°41'0 0.0
2016-Jul-22 07:31N 35°26' E 139°41'0 0.0
2016-Jul-22 04:32N 35°26' E 139°41'0 0.1
2016-Jul-22 03:33N 35°26' E 139°41'8 7.8
2016-Jul-22 02:33N 35°29' E 139°50'7 7.4
2016-Jul-22 01:33N 35°36' E 139°48'0 0.1
2016-Jul-22 00:32N 35°36' E 139°48'0 0.0
2016-Jul-21 23:32N 35°36' E 139°48'0 0.0
2016-Jul-21 22:31N 35°36' E 139°48'0 0.0
2016-Jul-21 21:31N 35°36' E 139°48'0 0.0
2016-Jul-21 20:33N 35°36' E 139°48'0 0.0
2016-Jul-21 19:33N 35°36' E 139°48'0 0.0
2016-Jul-21 18:32N 35°36' E 139°48'0 0.0
2016-Jul-21 17:32N 35°36' E 139°48'0 0.0
2016-Jul-21 16:32N 35°36' E 139°48'0 0.0
2016-Jul-21 15:31N 35°36' E 139°48'0 0.0
2016-Jul-21 14:31N 35°36' E 139°48'0 0.0
2016-Jul-21 13:31N 35°36' E 139°48'0 0.0
2016-Jul-21 12:33N 35°36' E 139°48'0 0.0
2016-Jul-21 11:33N 35°36' E 139°48'0 0.0
2016-Jul-21 10:32N 35°36' E 139°48'0 0.0
2016-Jul-21 09:32N 35°36' E 139°48'0 0.0
2016-Jul-21 08:32N 35°36' E 139°48'0 0.0
2016-Jul-21 07:31N 35°36' E 139°48'0 0.3
2016-Jul-21 06:34N 35°36' E 139°47'9 9.1
2016-Jul-21 05:33N 35°27' E 139°49'1111.4
2016-Jul-21 04:33N 35°15' E 139°47'1414.4
2016-Jul-21 03:33N 35°02' E 139°40'  
Track history (hours):
 
Tides and Currents Weather Stations Pressure Air Temp Water Temp Dewpoint Dewpoint Depression Visibility Wind Speed Wind Dir Waves Ship Positions

Asiatic Wave

Last reported at 2016-Jul-28 23:04 UTC. Time now 2016-Jul-30 07:21 UTC.
Position N 34°34' E 134°49'.

Length 150 m; draft 7 m.

Type: Ship (hazmat cat A). MMSI: 564211000.

Date/timePositionNaut miles runAvg speedWind from/ knotsBaromVisibWave heightAir tempDewpointWater temp
2016-Jul-28 23:04N 34°34' E 134°49'916.4
2016-Jul-28 22:33N 34°37' E 134°58'1514.6
2016-Jul-28 21:33N 34°38' E 135°16'3 2.4
2016-Jul-28 20:29N 34°40' E 135°14'0 0.0
2016-Jul-28 19:33N 34°40' E 135°14'0 0.0
2016-Jul-28 18:12N 34°40' E 135°14'0 0.0
2016-Jul-28 17:22N 34°40' E 135°14'0 0.0
2016-Jul-28 16:28N 34°40' E 135°14'0 0.0
2016-Jul-28 15:33N 34°40' E 135°14'0 0.0
2016-Jul-28 14:33N 34°40' E 135°14'0 0.0
2016-Jul-28 13:33N 34°40' E 135°14'0 0.0
2016-Jul-28 12:33N 34°40' E 135°14'1 0.5
2016-Jul-28 11:33N 34°40' E 135°15'9 9.2
2016-Jul-28 10:33N 34°39' E 135°26'0 0.0
2016-Jul-28 09:33N 34°39' E 135°26'0 0.0
2016-Jul-28 08:33N 34°39' E 135°26'0 0.0
2016-Jul-28 07:33N 34°39' E 135°26'0 0.0
2016-Jul-28 06:33N 34°39' E 135°26'0 0.0
2016-Jul-28 05:33N 34°39' E 135°26'0 0.0
2016-Jul-28 04:33N 34°39' E 135°26'0 0.0
2016-Jul-28 03:33N 34°39' E 135°26'0 0.0
2016-Jul-28 02:33N 34°39' E 135°26'0 0.0
2016-Jul-28 01:33N 34°39' E 135°26'0 0.0
2016-Jul-28 00:33N 34°39' E 135°26'0 0.0
2016-Jul-27 23:33N 34°39' E 135°26'0 0.0
2016-Jul-27 22:33N 34°39' E 135°26'5 4.9
2016-Jul-27 21:33N 34°36' E 135°20'9 9.2
2016-Jul-27 20:33N 34°35' E 135°10'9 9.4
2016-Jul-27 19:33N 34°37' E 134°58'1111.1
2016-Jul-27 18:32N 34°32' E 134°46'66615.1
2016-Jul-25 22:25N 31°11' E 122°10'1414.8
2016-Jul-25 21:30N 31°15' E 121°55'1314.2
2016-Jul-25 20:33N 31°20' E 121°41'5 3.1
2016-Jul-25 19:05N 31°22' E 121°36'0 0.0
2016-Jul-25 18:32N 31°22' E 121°36'0 0.0
2016-Jul-25 17:22N 31°22' E 121°36'0 0.0
2016-Jul-25 16:04N 31°22' E 121°36'0 0.0
2016-Jul-25 15:09N 31°22' E 121°36'0 0.0
2016-Jul-25 11:25N 31°22' E 121°36'0 0.0
2016-Jul-25 10:18N 31°22' E 121°36'0 0.0
2016-Jul-25 09:06N 31°22' E 121°36'0 0.0
2016-Jul-25 08:29N 31°22' E 121°36'0 0.0
2016-Jul-25 07:29N 31°22' E 121°36'0 0.1
2016-Jul-25 06:33N 31°22' E 121°36'0 0.1
2016-Jul-25 04:33N 31°22' E 121°36'4 4.0
2016-Jul-25 03:33N 31°21' E 121°40'  
2016-Jul-22 13:33N 34°58' E 139°29'1817.8
2016-Jul-22 12:34N 35°09' E 139°46'1312.8
2016-Jul-22 11:33N 35°22' E 139°42'5 5.0
2016-Jul-22 10:32N 35°26' E 139°41'0 0.0
2016-Jul-22 09:32N 35°26' E 139°41'0 0.0
2016-Jul-22 08:31N 35°26' E 139°41'0 0.0
2016-Jul-22 07:31N 35°26' E 139°41'0 0.0
2016-Jul-22 04:32N 35°26' E 139°41'0 0.1
2016-Jul-22 03:33N 35°26' E 139°41'8 7.8
2016-Jul-22 02:33N 35°29' E 139°50'7 7.4
2016-Jul-22 01:33N 35°36' E 139°48'0 0.1
2016-Jul-22 00:32N 35°36' E 139°48'0 0.0
2016-Jul-21 23:32N 35°36' E 139°48'0 0.0
2016-Jul-21 22:31N 35°36' E 139°48'0 0.0
2016-Jul-21 21:31N 35°36' E 139°48'0 0.0
2016-Jul-21 20:33N 35°36' E 139°48'0 0.0
2016-Jul-21 19:33N 35°36' E 139°48'0 0.0
2016-Jul-21 18:32N 35°36' E 139°48'0 0.0
2016-Jul-21 17:32N 35°36' E 139°48'0 0.0
2016-Jul-21 16:32N 35°36' E 139°48'0 0.0
2016-Jul-21 15:31N 35°36' E 139°48'0 0.0
2016-Jul-21 14:31N 35°36' E 139°48'0 0.0
2016-Jul-21 13:31N 35°36' E 139°48'0 0.0
2016-Jul-21 12:33N 35°36' E 139°48'0 0.0
2016-Jul-21 11:33N 35°36' E 139°48'0 0.0
2016-Jul-21 10:32N 35°36' E 139°48'0 0.0
2016-Jul-21 09:32N 35°36' E 139°48'0 0.0
2016-Jul-21 08:32N 35°36' E 139°48'0 0.0
2016-Jul-21 07:31N 35°36' E 139°48'0 0.3
2016-Jul-21 06:34N 35°36' E 139°47'9 9.1
2016-Jul-21 05:33N 35°27' E 139°49'1111.4
2016-Jul-21 04:33N 35°15' E 139°47'1414.4
2016-Jul-21 03:33N 35°02' E 139°40'  

Dump ship's entire track history